Weather History for Stampede Pass, WA

Change the Weather History Date:

Sunday, November 13, 2011

  Actual Average Record
Temperature  
Mean Temperature 32 °F -  
Max Temperature 33 °F 36 °F 51 °F (1999)
Min Temperature 30 °F 28 °F 19 °F (2000)
Degree Days  
Heating Degree Days 34    
Moisture  
Dew Point 30 °F    
Average Humidity 98    
Maximum Humidity 100    
Minimum Humidity 93    
Precipitation  
Precipitation 2.29 in - - ()
Sea Level Pressure  
Sea Level Pressure 29.53 in    
Wind  
Wind Speed 12 mph (West)    
Max Wind Speed 18 mph    
Max Gust Speed 41 mph    
Visibility 1 miles    
Events Fog , Rain , Snow    
Averages and records for this station are not official NWS values.
T = Trace of Precipitation, MM = Missing Value Source: NWS Daily Summary

Daily Weather History Graph

Daily Weather History Graph

Search for Another Location

Airport:

Trip Planner

Search our weather history database for the weather conditions in past years. The results will help you decide how hot, cold, wet, or windy it might be!

Date:

Astronomy

Nov. 13, 2011 Rise Set
Actual Time 7:06 AM PST 4:32 PM PST
Civil Twilight 6:33 AM PST 5:05 PM PST
Nautical Twilight 5:56 AM PST 5:42 PM PST
Astronomical Twilight 5:20 AM PST 6:18 PM PST
Moon 6:38 PM PST (11/13) 9:50 AM PST (11/13)
Length of Visible Light 10h 32m
Length of Day
9h 25m
Waning Gibbous, 92% of the Moon is Illuminated
Nov 13
Waning Gibbous
Nov 18
Last Quarter
Nov 24
New
Dec 2
First Quarter
Dec 10
Full

Hourly Weather History & Observations

Time (PST) Temp. Windchill Dew Point Humidity Pressure Visibility Wind Dir Wind Speed Gust Speed Precip Events Conditions
12:00 AM 33.8 °F 25.8 °F 32.0 °F 93% 29.53 in 1.5 mi West 10.4 mph 41.4 mph 0.01 in Snow Light Snow
12:03 AM 32.0 °F 21.2 °F 32.0 °F 100% 29.53 in 0.8 mi West 16.1 mph 41.4 mph 0.02 in Snow Light Snow
12:14 AM 32.0 °F 21.2 °F 32.0 °F 100% - 1.5 mi West 16.1 mph 35.7 mph 0.03 in   Overcast
12:16 AM 32.0 °F 22.1 °F 32.0 °F 100% - 4.0 mi West 13.8 mph 31.1 mph 0.03 in   Overcast
12:23 AM 32.0 °F 23.0 °F 30.2 °F 93% - 7.0 mi WSW 11.5 mph 36.8 mph 0.03 in   Overcast
12:48 AM 30.2 °F 19.8 °F 30.2 °F 100% - 6.0 mi West 13.8 mph 32.2 mph 0.03 in Snow Light Snow
12:56 AM 30.9 °F 20.2 °F 30.0 °F 96% - 2.5 mi West 15.0 mph 33.4 mph 0.03 in Snow Light Snow
1:03 AM 30.2 °F 18.9 °F 30.2 °F 100% - 1.2 mi West 16.1 mph 34.5 mph 0.02 in Snow Light Snow
1:14 AM 30.2 °F 19.8 °F 30.2 °F 100% - 0.8 mi West 13.8 mph 31.1 mph 0.08 in Snow Light Snow
1:33 AM 30.2 °F 18.1 °F 30.2 °F 100% - 1.0 mi West 18.4 mph 32.2 mph 0.14 in Snow Light Snow
1:56 AM 30.9 °F 21.2 °F 30.9 °F 100% - 0.8 mi West 12.7 mph 26.5 mph 0.18 in Snow Light Snow
2:56 AM 30.9 °F 21.7 °F 30.9 °F 100% - 0.5 mi West 11.5 mph 20.7 mph 0.14 in Fog , Snow Snow
3:36 AM 30.2 °F 21.3 °F 30.2 °F 100% - 0.2 mi West 10.4 mph 21.9 mph 0.13 in Fog , Snow Snow
3:54 AM 30.2 °F 20.8 °F 30.2 °F 100% - 0.5 mi West 11.5 mph 21.9 mph 0.19 in Fog , Snow Snow
3:56 AM 30.0 °F 20.0 °F 30.0 °F 100% - 0.5 mi WNW 12.7 mph 24.2 mph 0.19 in Fog , Snow Snow
4:40 AM 30.2 °F 19.3 °F 30.2 °F 100% - 0.5 mi West 15.0 mph 33.4 mph 0.11 in Fog , Snow Light Snow
4:56 AM 30.0 °F 19.5 °F 30.0 °F 100% - 0.5 mi West 13.8 mph 28.8 mph 0.13 in Fog , Snow Light Snow
5:03 AM 30.2 °F 21.9 °F 30.2 °F 100% - 0.2 mi West 9.2 mph 31.1 mph 0.00 in Fog , Snow Light Snow
5:11 AM 30.2 °F 20.2 °F 30.2 °F 100% - 0.5 mi West 12.7 mph 27.6 mph 0.01 in Fog , Snow Light Snow
5:41 AM 30.2 °F 21.3 °F 30.2 °F 100% - 0.2 mi West 10.4 mph 21.9 mph 0.03 in Fog , Snow Light Snow
5:56 AM 30.0 °F 20.5 °F 30.0 °F 100% - 0.5 mi West 11.5 mph 25.3 mph 0.03 in Fog , Snow Light Snow
6:24 AM 30.2 °F 21.9 °F 30.2 °F 100% - 1.0 mi West 9.2 mph 27.6 mph 0.03 in Snow Light Snow
6:48 AM 30.2 °F 20.8 °F 30.2 °F 100% - 2.0 mi West 11.5 mph 23.0 mph 0.04 in Snow Light Snow
6:56 AM 30.0 °F 22.4 °F 28.9 °F 96% - 1.2 mi West 8.1 mph 23.0 mph 0.04 in Snow Light Snow
7:13 AM 30.2 °F 21.9 °F 28.4 °F 93% - 2.0 mi West 9.2 mph 25.3 mph 0.02 in   Overcast
7:15 AM 30.2 °F 19.8 °F 28.4 °F 93% - 4.0 mi West 13.8 mph 26.5 mph 0.02 in   Overcast
7:56 AM 30.0 °F 20.0 °F 28.9 °F 96% - 4.0 mi West 12.7 mph 28.8 mph 0.02 in   Overcast
8:51 AM 30.2 °F 21.3 °F 30.2 °F 100% - 1.2 mi West 10.4 mph 26.5 mph 0.00 in Snow Light Snow
8:54 AM 30.2 °F 21.3 °F 30.2 °F 100% - 0.2 mi West 10.4 mph 24.2 mph 0.01 in Fog , Snow Light Snow
8:56 AM 30.0 °F 21.1 °F 30.0 °F 100% - 0.2 mi West 10.4 mph 24.2 mph 0.01 in Fog , Snow Light Snow
9:17 AM 30.2 °F 19.3 °F 30.2 °F 100% - 0.8 mi West 15.0 mph 28.8 mph 0.03 in Snow Light Snow
9:42 AM 30.2 °F 21.3 °F 30.2 °F 100% - 0.2 mi West 10.4 mph 24.2 mph 0.06 in Fog , Snow Light Snow
9:52 AM 30.2 °F 20.8 °F 30.2 °F 100% - 1.0 mi West 11.5 mph 26.5 mph 0.07 in Snow Light Snow
9:56 AM 30.0 °F 22.4 °F 30.0 °F 100% - 0.8 mi West 8.1 mph 26.5 mph 0.07 in Snow Light Snow
10:05 AM 30.2 °F 20.8 °F 30.2 °F 100% - 0.2 mi WSW 11.5 mph 26.5 mph 0.02 in Fog , Snow Light Snow
10:25 AM 30.2 °F 20.2 °F 30.2 °F 100% - 0.8 mi WSW 12.7 mph 23.0 mph 0.04 in Snow Light Snow
10:36 AM 30.2 °F 21.9 °F 30.2 °F 100% - 0.2 mi West 9.2 mph 24.2 mph 0.05 in Fog , Snow Light Snow
10:56 AM 30.0 °F 19.5 °F 30.0 °F 100% - 0.2 mi West 13.8 mph 26.5 mph 0.10 in Fog , Snow Light Snow
11:56 AM 30.0 °F 23.2 °F 30.0 °F 100% - 0.2 mi Variable 6.9 mph - 0.16 in Fog , Snow Snow
12:38 PM 30.2 °F 20.8 °F 30.2 °F 100% - 0.2 mi West 11.5 mph 25.3 mph 0.16 in Fog , Snow Snow
12:56 PM 30.0 °F 23.2 °F 30.0 °F 100% - 0.2 mi Variable 6.9 mph 19.6 mph 0.18 in Fog , Snow Light Snow
1:56 PM 30.9 °F 21.7 °F 30.9 °F 100% - 0.2 mi West 11.5 mph 23.0 mph 0.16 in Fog , Snow Light Snow
2:56 PM 30.9 °F 22.2 °F 30.9 °F 100% - 0.2 mi West 10.4 mph 19.6 mph 0.12 in Fog , Snow Snow
3:27 PM 30.2 °F 21.3 °F 30.2 °F 100% - 0.2 mi West 10.4 mph 26.5 mph 0.05 in Fog , Snow Snow
3:36 PM 30.2 °F 21.3 °F 30.2 °F 100% - 0.2 mi West 10.4 mph 23.0 mph 0.06 in Fog , Snow Light Snow
3:56 PM 30.9 °F 23.5 °F 30.9 °F 100% - 0.2 mi West 8.1 mph 18.4 mph 0.10 in Fog , Snow Light Snow
4:56 PM 30.9 °F 21.7 °F 30.9 °F 100% - 0.5 mi West 11.5 mph 27.6 mph 0.12 in Fog , Snow Light Snow
5:09 PM 30.2 °F 20.8 °F 30.2 °F 100% - 0.2 mi West 11.5 mph 27.6 mph 0.03 in Fog , Snow Snow
5:18 PM 30.2 °F 20.2 °F 30.2 °F 100% - 0.5 mi West 12.7 mph 24.2 mph 0.05 in Fog , Snow Snow
5:25 PM 30.2 °F 21.3 °F 30.2 °F 100% - 0.2 mi West 10.4 mph 24.2 mph 0.06 in Fog , Snow Snow
5:41 PM 30.2 °F 20.8 °F 30.2 °F 100% - 0.5 mi West 11.5 mph 24.2 mph 0.07 in Fog , Snow Light Snow
5:51 PM 30.2 °F 24.3 °F 30.2 °F 100% - 0.2 mi Variable 5.8 mph 21.9 mph 0.09 in Fog , Snow Light Snow
5:56 PM 30.9 °F 25.2 °F 30.9 °F 100% - 0.2 mi Variable 5.8 mph - 0.10 in Fog , Snow Snow
6:34 PM 30.2 °F 18.9 °F 30.2 °F 100% - 0.5 mi West 16.1 mph 28.8 mph 0.07 in Fog , Snow Light Snow
6:56 PM 30.9 °F 22.2 °F 30.9 °F 100% - 0.5 mi West 10.4 mph 20.7 mph 0.13 in Fog , Snow Snow
7:03 PM 30.2 °F 22.6 °F 30.2 °F 100% - 0.2 mi West 8.1 mph 19.6 mph 0.02 in Fog , Snow Light Snow
7:30 PM 32.0 °F 24.8 °F 32.0 °F 100% - 0.2 mi WSW 8.1 mph 26.5 mph 0.03 in Fog , Rain Light Freezing Rain
7:41 PM 32.0 °F 23.6 °F 32.0 °F 100% - 0.2 mi West 10.4 mph 18.4 mph 0.04 in Fog , Snow Light Snow
7:53 PM 32.0 °F 23.6 °F 32.0 °F 100% - 0.5 mi West 10.4 mph 26.5 mph 0.05 in Fog , Snow Light Snow
7:56 PM 32.0 °F 23.0 °F 32.0 °F 100% - 0.5 mi West 11.5 mph 26.5 mph 0.06 in Fog , Snow Light Snow
8:05 PM 32.0 °F 23.0 °F 32.0 °F 100% - 0.2 mi West 11.5 mph 25.3 mph 0.02 in Fog , Snow Snow
8:56 PM 32.0 °F 23.6 °F 32.0 °F 100% - 0.8 mi West 10.4 mph 23.0 mph 0.09 in Snow Light Snow
9:04 PM 32.0 °F 24.8 °F 32.0 °F 100% - 1.0 mi West 8.1 mph 23.0 mph 0.00 in Snow Light Snow
9:11 PM 32.0 °F 25.6 °F 32.0 °F 100% - 0.2 mi Variable 6.9 mph 19.6 mph 0.02 in Fog , Snow Light Snow
9:51 PM 32.0 °F 22.5 °F 30.2 °F 93% - 0.8 mi West 12.7 mph 27.6 mph 0.06 in Snow Light Snow
9:56 PM 32.0 °F 22.1 °F 30.9 °F 96% - 1.0 mi West 13.8 mph 28.8 mph 0.08 in Snow Light Snow
10:04 PM 32.0 °F 23.0 °F 30.2 °F 93% - 0.8 mi West 11.5 mph 29.9 mph 0.00 in Snow Light Snow
10:17 PM 32.0 °F 21.2 °F 30.2 °F 93% - 1.0 mi West 16.1 mph 31.1 mph 0.02 in Snow Light Snow
10:27 PM 32.0 °F 22.1 °F 30.2 °F 93% - 0.5 mi WNW 13.8 mph 26.5 mph 0.03 in Fog , Snow Light Snow
10:48 PM 32.0 °F 20.8 °F 30.2 °F 93% - 1.5 mi West 17.3 mph 34.5 mph 0.04 in Snow Light Snow
10:56 PM 32.0 °F 21.6 °F 30.9 °F 96% - 1.5 mi West 15.0 mph 34.5 mph 0.04 in   Overcast
11:03 PM 32.0 °F 22.5 °F 30.2 °F 93% - 1.0 mi West 12.7 mph 33.4 mph N/A   Overcast
11:17 PM 32.0 °F 22.5 °F 30.2 °F 93% - 2.0 mi West 12.7 mph 26.5 mph 0.01 in   Overcast
11:20 PM 32.0 °F 22.5 °F 30.2 °F 93% - 3.0 mi West 12.7 mph 27.6 mph 0.01 in   Overcast
11:30 PM 30.2 °F 20.2 °F 30.2 °F 100% - 2.5 mi West 12.7 mph 25.3 mph 0.01 in   Overcast
11:35 PM 32.0 °F 21.6 °F 30.2 °F 93% - 1.2 mi West 15.0 mph 28.8 mph 0.01 in   Overcast
11:44 PM 32.0 °F 23.0 °F 30.2 °F 93% - 0.8 mi West 11.5 mph 28.8 mph 0.01 in   Overcast
11:56 PM 32.0 °F 22.1 °F 30.9 °F 96% - 0.2 mi West 13.8 mph 31.1 mph 0.01 in Fog Fog